createdAt,value
2019-02-05T00:00:18.207Z,216.75
2019-02-05T00:01:18.412Z,216.80
2019-02-05T00:02:18.593Z,216.79
2019-02-05T00:03:18.779Z,216.73
2019-02-05T00:04:19.012Z,216.80
2019-02-05T00:05:19.298Z,216.73
2019-02-05T00:06:19.470Z,216.75
2019-02-05T00:07:19.599Z,216.76
2019-02-05T00:08:19.805Z,216.73
2019-02-05T00:09:20.001Z,216.76
2019-02-05T00:10:20.181Z,216.76
2019-02-05T00:11:20.422Z,216.81
2019-02-05T00:12:25.282Z,216.84
2019-02-05T00:13:20.863Z,216.76
2019-02-05T00:14:20.994Z,216.78
2019-02-05T00:15:21.173Z,216.84
2019-02-05T00:16:21.381Z,216.81
2019-02-05T00:17:21.586Z,216.80
2019-02-05T00:18:21.785Z,216.81
2019-02-05T00:19:22.007Z,216.82
2019-02-05T00:20:22.192Z,216.90
2019-02-05T00:21:22.417Z,216.90
2019-02-05T00:22:22.634Z,216.87
2019-02-05T00:23:22.816Z,216.88
2019-02-05T00:24:23.026Z,216.93
2019-02-05T00:25:23.251Z,216.89
2019-02-05T00:26:23.433Z,216.89
2019-02-05T00:27:23.635Z,216.96
2019-02-05T00:28:23.817Z,216.97
2019-02-05T00:29:24.039Z,216.88
2019-02-05T00:30:24.336Z,216.90
2019-02-05T00:31:24.415Z,216.97
2019-02-05T00:32:24.608Z,216.93
2019-02-05T00:33:24.812Z,216.96
2019-02-05T00:34:25.022Z,216.93
2019-02-05T00:35:25.241Z,216.90
2019-02-05T00:36:25.424Z,216.88
2019-02-05T00:37:25.636Z,216.87
2019-02-05T00:38:25.914Z,216.88
2019-02-05T00:39:26.012Z,216.90
2019-02-05T00:40:26.202Z,216.80
2019-02-05T00:41:26.407Z,216.84
2019-02-05T00:42:26.603Z,216.85
2019-02-05T00:43:26.782Z,216.85
2019-02-05T00:44:27.013Z,216.87
2019-02-05T00:45:27.232Z,216.87
2019-02-05T00:46:27.451Z,216.85
2019-02-05T00:47:27.607Z,216.99
2019-02-05T00:48:27.771Z,216.93
2019-02-05T00:49:27.983Z,216.96
2019-02-05T00:50:28.172Z,216.94
2019-02-05T00:51:28.379Z,216.98
2019-02-05T00:52:28.609Z,216.96
2019-02-05T00:53:28.778Z,216.93
2019-02-05T00:54:29.015Z,216.97
2019-02-05T00:55:29.158Z,216.87
2019-02-05T00:56:29.380Z,216.98
2019-02-05T00:57:29.617Z,216.94
2019-02-05T00:58:29.806Z,217.05
2019-02-05T00:59:30.024Z,216.96
2019-02-05T01:00:30.225Z,216.88
2019-02-05T01:01:30.395Z,216.99
2019-02-05T01:02:30.699Z,216.93
2019-02-05T01:03:30.895Z,217.00
2019-02-05T01:04:31.027Z,216.94
2019-02-05T01:05:31.195Z,216.99
2019-02-05T01:06:31.408Z,216.97
2019-02-05T01:07:31.671Z,217.02
2019-02-05T01:08:31.822Z,217.01
2019-02-05T01:09:32.275Z,217.04
2019-02-05T01:10:32.228Z,216.99
2019-02-05T01:11:32.543Z,216.96
2019-02-05T01:12:32.726Z,217.00
2019-02-05T01:13:32.824Z,217.01
2019-02-05T01:14:33.033Z,217.01
2019-02-05T01:15:33.226Z,217.01
2019-02-05T01:16:33.396Z,217.02
2019-02-05T01:17:33.637Z,217.01
2019-02-05T01:18:33.834Z,217.08
2019-02-05T01:19:34.109Z,217.01
2019-02-05T01:20:34.228Z,217.00
2019-02-05T01:21:34.421Z,217.02
2019-02-05T01:22:34.623Z,217.01
2019-02-05T01:23:34.823Z,216.96
2019-02-05T01:24:35.037Z,216.96
2019-02-05T01:25:35.270Z,216.89
2019-02-05T01:26:35.416Z,216.94
2019-02-05T01:27:35.750Z,216.93
2019-02-05T01:28:35.789Z,216.93
2019-02-05T01:29:36.028Z,216.85
2019-02-05T01:30:36.215Z,216.85
2019-02-05T01:31:36.410Z,216.79
2019-02-05T01:32:36.635Z,216.81
2019-02-05T01:33:36.804Z,216.78
2019-02-05T01:34:37.009Z,216.69
2019-02-05T01:35:37.271Z,216.73
2019-02-05T01:36:37.445Z,216.75
2019-02-05T01:37:38.466Z,216.73
2019-02-05T01:38:37.813Z,216.65
2019-02-05T01:39:38.010Z,216.65
2019-02-05T01:40:38.220Z,216.65
2019-02-05T01:41:38.412Z,216.65
2019-02-05T01:42:38.628Z,216.56
2019-02-05T01:43:38.816Z,216.55
2019-02-05T01:44:39.145Z,216.56
2019-02-05T01:45:39.341Z,216.49
2019-02-05T01:46:39.407Z,216.53
2019-02-05T01:47:39.634Z,216.53
2019-02-05T01:48:39.807Z,216.48
2019-02-05T01:49:40.096Z,216.50
2019-02-05T01:50:40.197Z,216.53
2019-02-05T01:51:40.403Z,216.53
2019-02-05T01:52:40.773Z,216.49
2019-02-05T01:53:40.815Z,216.53
2019-02-05T01:54:41.008Z,216.53
2019-02-05T01:55:41.290Z,216.57
2019-02-05T01:56:41.422Z,216.49
2019-02-05T01:57:41.638Z,216.48
2019-02-05T01:58:41.826Z,216.51
2019-02-05T01:59:42.030Z,216.48
2019-02-05T02:00:42.281Z,216.53
2019-02-05T02:01:42.416Z,216.50
2019-02-05T02:02:42.654Z,216.49
2019-02-05T02:03:42.831Z,216.48
2019-02-05T02:04:43.029Z,216.46
2019-02-05T02:05:43.267Z,216.41
2019-02-05T02:06:43.431Z,216.42
2019-02-05T02:07:43.664Z,216.46
2019-02-05T02:08:43.924Z,216.41
2019-02-05T02:09:44.038Z,216.42
2019-02-05T02:10:44.297Z,216.42
2019-02-05T02:11:44.442Z,216.48
2019-02-05T02:12:44.680Z,216.44
2019-02-05T02:13:44.848Z,216.36
2019-02-05T02:14:45.047Z,216.41
2019-02-05T02:15:45.265Z,216.39
2019-02-05T02:16:45.463Z,216.41
2019-02-05T02:17:45.783Z,216.30
2019-02-05T02:18:45.845Z,216.34
2019-02-05T02:19:46.062Z,216.30
2019-02-05T02:20:46.277Z,216.37
2019-02-05T02:21:46.469Z,216.41
2019-02-05T02:22:46.752Z,216.33
2019-02-05T02:23:46.846Z,216.37
2019-02-05T02:24:47.054Z,216.33
2019-02-05T02:25:47.415Z,216.27
2019-02-05T02:26:52.004Z,216.33
2019-02-05T02:27:47.713Z,216.27
2019-02-05T02:28:47.844Z,216.28
2019-02-05T02:29:48.059Z,216.27
2019-02-05T02:30:48.294Z,216.28
2019-02-05T02:31:48.487Z,216.28
2019-02-05T02:32:48.714Z,216.28
2019-02-05T02:33:48.924Z,216.30
2019-02-05T02:34:49.064Z,216.27
2019-02-05T02:35:49.296Z,216.24
2019-02-05T02:36:49.606Z,216.24
2019-02-05T02:37:49.706Z,216.20
2019-02-05T02:38:49.876Z,216.19
2019-02-05T02:39:50.061Z,216.24
2019-02-05T02:40:50.295Z,216.22
2019-02-05T02:41:50.522Z,216.25
2019-02-05T02:42:50.669Z,216.20
2019-02-05T02:43:50.859Z,216.20
2019-02-05T02:44:51.058Z,216.18
2019-02-05T02:45:51.277Z,216.19
2019-02-05T02:46:51.457Z,216.22
2019-02-05T02:47:51.899Z,216.19
2019-02-05T02:48:51.863Z,216.19
2019-02-05T02:49:52.128Z,216.22
2019-02-05T02:50:52.331Z,216.16
2019-02-05T02:51:52.451Z,216.20
2019-02-05T02:52:52.684Z,216.19
2019-02-05T02:53:52.909Z,216.18
2019-02-05T02:54:53.063Z,216.18
2019-02-05T02:55:53.283Z,216.22
2019-02-05T02:57:04.348Z,216.19
2019-02-05T02:57:54.661Z,216.15
2019-02-05T02:58:54.016Z,216.10
2019-02-05T02:59:54.073Z,216.13
2019-02-05T03:00:54.323Z,216.22
2019-02-05T03:01:54.474Z,216.15
2019-02-05T03:02:54.683Z,216.14
2019-02-05T03:03:54.953Z,216.22
2019-02-05T03:04:55.091Z,216.10
2019-02-05T03:05:55.334Z,216.14
2019-02-05T03:06:55.559Z,216.15
2019-02-05T03:07:55.688Z,216.07
2019-02-05T03:08:55.922Z,216.15
2019-02-05T03:09:56.134Z,216.05
2019-02-05T03:10:56.371Z,216.08
2019-02-05T03:11:56.531Z,216.10
2019-02-05T03:12:56.716Z,216.03
2019-02-05T03:13:56.952Z,216.10
2019-02-05T03:14:57.252Z,216.07
2019-02-05T03:15:57.377Z,216.14
2019-02-05T03:16:57.534Z,216.04
2019-02-05T03:17:57.750Z,216.03
2019-02-05T03:18:57.934Z,216.04
2019-02-05T03:19:58.134Z,216.06
2019-02-05T03:20:58.400Z,216.01
2019-02-05T03:21:58.546Z,216.01
2019-02-05T03:22:58.802Z,216.07
2019-02-05T03:23:58.937Z,216.08
2019-02-05T03:24:59.118Z,215.95
2019-02-05T03:25:59.365Z,216.04
2019-02-05T03:26:59.535Z,216.03
2019-02-05T03:27:59.741Z,216.04
2019-02-05T03:28:59.960Z,216.04
2019-02-05T03:30:00.334Z,216.04
2019-02-05T03:31:00.409Z,215.99
2019-02-05T03:32:00.632Z,215.99
2019-02-05T03:33:00.742Z,216.01
2019-02-05T03:34:00.962Z,215.98
2019-02-05T03:35:01.144Z,215.98
2019-02-05T03:36:01.373Z,215.96
2019-02-05T03:37:01.545Z,215.95
2019-02-05T03:38:01.774Z,215.93
2019-02-05T03:39:01.995Z,216.04
2019-02-05T03:40:02.270Z,215.98
2019-02-05T03:41:02.755Z,215.96
2019-02-05T03:42:02.563Z,215.95
2019-02-05T03:43:02.774Z,215.94
2019-02-05T03:44:02.989Z,215.91
2019-02-05T03:45:03.153Z,215.96
2019-02-05T03:46:03.404Z,215.95
2019-02-05T03:47:03.543Z,215.95
2019-02-05T03:48:03.844Z,216.01
2019-02-05T03:49:03.999Z,215.94
2019-02-05T03:50:04.171Z,215.98
2019-02-05T03:51:04.427Z,215.95
2019-02-05T03:52:04.560Z,215.98
2019-02-05T03:53:04.804Z,215.95
2019-02-05T03:54:05.010Z,215.94
2019-02-05T03:55:05.176Z,215.98
2019-02-05T03:56:05.472Z,215.95
2019-02-05T03:57:05.558Z,215.93
2019-02-05T03:58:05.781Z,215.95
2019-02-05T03:59:05.974Z,215.95
2019-02-05T04:00:06.162Z,215.91
2019-02-05T04:01:06.386Z,215.91
2019-02-05T04:02:06.569Z,215.93
2019-02-05T04:03:06.779Z,215.93
2019-02-05T04:04:07.003Z,215.91
2019-02-05T04:05:07.182Z,215.91
2019-02-05T04:06:07.354Z,215.93
2019-02-05T04:07:07.621Z,215.96
2019-02-05T04:08:07.822Z,215.95
2019-02-05T04:09:08.003Z,215.94
2019-02-05T04:10:08.199Z,215.99
2019-02-05T04:11:08.367Z,215.94
2019-02-05T04:12:08.634Z,215.96
2019-02-05T04:13:08.925Z,215.94
2019-02-05T04:14:08.998Z,215.96
2019-02-05T04:15:09.170Z,215.91
2019-02-05T04:16:09.384Z,215.91
2019-02-05T04:17:09.596Z,215.93
2019-02-05T04:18:09.814Z,215.93
2019-02-05T04:19:10.013Z,215.94
2019-02-05T04:20:10.185Z,215.91
2019-02-05T04:21:10.490Z,215.94
2019-02-05T04:22:10.603Z,215.95
2019-02-05T04:23:10.782Z,215.94
2019-02-05T04:24:11.238Z,215.90
2019-02-05T04:25:11.189Z,215.88
2019-02-05T04:26:11.375Z,215.90
2019-02-05T04:27:11.620Z,215.91
2019-02-05T04:28:11.795Z,215.91
2019-02-05T04:29:12.102Z,215.87
2019-02-05T04:30:12.180Z,215.85
2019-02-05T04:31:12.365Z,215.87
2019-02-05T04:32:12.625Z,215.94
2019-02-05T04:33:12.802Z,215.90
2019-02-05T04:34:13.015Z,215.87
2019-02-05T04:35:13.202Z,215.87
2019-02-05T04:36:13.399Z,215.87
2019-02-05T04:37:13.701Z,215.87
2019-02-05T04:38:13.776Z,215.83
2019-02-05T04:39:14.021Z,215.85
2019-02-05T04:40:14.202Z,215.84
2019-02-05T04:41:14.402Z,215.85
2019-02-05T04:42:14.956Z,215.82
2019-02-05T04:43:14.794Z,215.87
2019-02-05T04:44:15.005Z,215.82
2019-02-05T04:45:15.240Z,215.79
2019-02-05T04:46:15.417Z,215.82
2019-02-05T04:47:15.656Z,215.79
2019-02-05T04:48:15.807Z,215.81
2019-02-05T04:49:16.007Z,215.84
2019-02-05T04:50:16.206Z,215.84
2019-02-05T04:51:16.421Z,215.82
2019-02-05T04:52:16.668Z,215.83
2019-02-05T04:53:16.951Z,215.82
2019-02-05T04:54:17.160Z,215.85
2019-02-05T04:55:17.258Z,215.90
2019-02-05T04:56:17.459Z,215.91
2019-02-05T04:57:17.701Z,215.93
2019-02-05T04:58:17.855Z,215.94
2019-02-05T04:59:18.072Z,215.95
2019-02-05T05:00:18.257Z,215.91
2019-02-05T05:01:18.452Z,215.96
2019-02-05T05:02:18.845Z,216.05
2019-02-05T05:03:18.886Z,216.06
2019-02-05T05:04:19.078Z,216.10
2019-02-05T05:05:19.240Z,216.01
2019-02-05T05:06:19.458Z,216.03
2019-02-05T05:07:19.674Z,215.99
2019-02-05T05:08:19.866Z,216.03
2019-02-05T05:09:20.062Z,216.04
2019-02-05T05:10:20.307Z,216.10
2019-02-05T05:11:20.445Z,216.07
2019-02-05T05:12:20.667Z,216.16
2019-02-05T05:13:20.880Z,216.19
2019-02-05T05:14:21.051Z,216.14
2019-02-05T05:15:21.267Z,216.13
2019-02-05T05:16:21.454Z,216.13
2019-02-05T05:17:21.672Z,216.14
2019-02-05T05:18:21.918Z,216.13
2019-02-05T05:19:22.070Z,216.15
2019-02-05T05:20:22.272Z,216.18
2019-02-05T05:21:22.487Z,216.20
2019-02-05T05:22:22.685Z,216.19
2019-02-05T05:23:22.901Z,216.20
2019-02-05T05:24:23.107Z,216.19
2019-02-05T05:25:23.317Z,216.19
2019-02-05T05:26:23.524Z,216.16
2019-02-05T05:27:23.785Z,216.22
2019-02-05T05:28:23.918Z,216.19
2019-02-05T05:29:24.166Z,216.15
2019-02-05T05:30:24.343Z,216.18
2019-02-05T05:31:24.519Z,216.14
2019-02-05T05:32:24.737Z,216.26
2019-02-05T05:33:24.950Z,216.24
2019-02-05T05:34:25.151Z,216.16
2019-02-05T05:35:25.512Z,216.22
2019-02-05T05:36:25.527Z,216.20
2019-02-05T05:37:25.733Z,216.24
2019-02-05T05:38:25.902Z,216.12
2019-02-05T05:39:26.102Z,216.20
2019-02-05T05:40:26.331Z,216.22
2019-02-05T05:41:26.514Z,216.22
2019-02-05T05:42:26.735Z,216.25
2019-02-05T05:43:27.023Z,216.22
2019-02-05T05:44:27.095Z,216.18
2019-02-05T05:45:27.331Z,216.22
2019-02-05T05:46:27.512Z,216.22
2019-02-05T05:47:27.730Z,216.15
2019-02-05T05:48:27.919Z,216.15
2019-02-05T05:49:28.104Z,216.24
2019-02-05T05:50:28.313Z,216.24
2019-02-05T05:51:28.549Z,216.22
2019-02-05T05:52:28.720Z,216.22
2019-02-05T05:53:28.928Z,216.25
2019-02-05T05:54:29.130Z,216.22
2019-02-05T05:55:29.317Z,216.24
2019-02-05T05:56:29.485Z,216.22
2019-02-05T05:57:29.715Z,216.15
2019-02-05T05:58:29.892Z,216.20
2019-02-05T05:59:30.170Z,216.14
2019-02-05T06:00:30.306Z,216.12
2019-02-05T06:01:30.480Z,216.16
2019-02-05T06:02:30.945Z,216.15
2019-02-05T06:03:30.897Z,216.16
2019-02-05T06:04:31.140Z,216.22
2019-02-05T06:05:31.320Z,216.22
2019-02-05T06:06:31.495Z,266.81
2019-02-05T06:07:31.757Z,267.71
2019-02-05T06:08:32.032Z,266.65
2019-02-05T06:09:32.246Z,267.34
2019-02-05T06:10:32.336Z,216.10
2019-02-05T06:11:32.514Z,216.15
2019-02-05T06:12:37.351Z,216.18
2019-02-05T06:13:32.901Z,216.14
2019-02-05T06:14:33.119Z,216.14
2019-02-05T06:15:35.733Z,216.12
2019-02-05T06:16:33.851Z,216.12
2019-02-05T06:17:33.740Z,216.05
2019-02-05T06:18:33.903Z,216.13
2019-02-05T06:19:34.107Z,216.08
2019-02-05T06:20:34.326Z,216.06
2019-02-05T06:21:34.517Z,216.07
2019-02-05T06:22:34.733Z,215.96
2019-02-05T06:23:34.997Z,216.03
2019-02-05T06:24:35.178Z,215.99
2019-02-05T06:25:35.325Z,215.96
2019-02-05T06:26:35.605Z,216.03
2019-02-05T06:27:35.724Z,216.01
2019-02-05T06:28:35.914Z,216.05
2019-02-05T06:29:36.088Z,216.03
2019-02-05T06:30:36.321Z,215.98
2019-02-05T06:31:36.520Z,216.01
2019-02-05T06:32:36.766Z,216.05
2019-02-05T06:33:36.896Z,216.04
2019-02-05T06:34:37.103Z,216.03
2019-02-05T06:35:37.311Z,216.03
2019-02-05T06:36:37.499Z,216.01
2019-02-05T06:37:37.723Z,216.04
2019-02-05T06:38:37.919Z,215.91
2019-02-05T06:39:38.101Z,215.96
2019-02-05T06:40:38.361Z,215.98
2019-02-05T06:41:38.612Z,215.98
2019-02-05T06:42:38.814Z,215.96
2019-02-05T06:43:39.052Z,215.99
2019-02-05T06:44:39.247Z,215.98
2019-02-05T06:45:41.407Z,215.98
2019-02-05T06:46:39.660Z,215.99
2019-02-05T06:47:39.860Z,215.93
2019-02-05T06:48:40.134Z,215.96
2019-02-05T06:49:40.390Z,215.93
2019-02-05T06:50:40.509Z,215.91
2019-02-05T06:51:40.686Z,215.91
2019-02-05T06:52:41.032Z,215.95
2019-02-05T06:53:41.184Z,215.91
2019-02-05T06:54:41.342Z,215.87
2019-02-05T06:55:41.556Z,215.85
2019-02-05T06:56:42.466Z,215.88
2019-02-05T06:57:42.031Z,215.90
2019-02-05T06:58:46.635Z,215.91
2019-02-05T06:59:42.363Z,215.83
2019-02-05T07:00:42.591Z,215.88
2019-02-05T07:01:42.783Z,215.82
2019-02-05T07:02:42.965Z,215.79
2019-02-05T07:03:43.254Z,215.85
2019-02-05T07:04:43.436Z,215.88
2019-02-05T07:05:43.697Z,215.91
2019-02-05T07:06:43.819Z,215.83
2019-02-05T07:07:44.022Z,215.85
2019-02-05T07:08:44.235Z,215.83
2019-02-05T07:09:44.445Z,215.84
2019-02-05T07:10:44.659Z,215.82
2019-02-05T07:11:44.849Z,215.91
2019-02-05T07:12:45.057Z,215.77
2019-02-05T07:13:45.332Z,215.76
2019-02-05T07:14:45.372Z,215.77
2019-02-05T07:15:45.598Z,215.71
2019-02-05T07:16:45.802Z,215.74
2019-02-05T07:17:49.739Z,215.65
2019-02-05T07:18:46.266Z,215.62
2019-02-05T07:19:46.435Z,215.63
2019-02-05T07:20:46.633Z,215.63
2019-02-05T07:21:47.061Z,215.62
2019-02-05T07:22:47.138Z,215.59
2019-02-05T07:23:47.288Z,215.60
2019-02-05T07:24:47.488Z,215.53
2019-02-05T07:25:47.710Z,215.53
2019-02-05T07:26:47.900Z,215.49
2019-02-05T07:27:48.115Z,215.50
2019-02-05T07:28:57.715Z,215.49
2019-02-05T07:29:49.526Z,215.48
2019-02-05T07:30:48.906Z,215.45
2019-02-05T07:31:48.939Z,215.40
2019-02-05T07:32:49.144Z,215.37
2019-02-05T07:33:49.370Z,215.42
2019-02-05T07:34:49.547Z,215.36
2019-02-05T07:35:49.778Z,215.37
2019-02-05T07:36:50.005Z,215.35
2019-02-05T07:37:50.195Z,215.35
2019-02-05T07:38:50.526Z,215.37
2019-02-05T07:39:50.591Z,215.34
2019-02-05T07:40:50.810Z,215.29
2019-02-05T07:41:51.017Z,215.35
2019-02-05T07:42:51.221Z,215.35
2019-02-05T07:43:51.443Z,215.23
2019-02-05T07:44:51.643Z,215.23
2019-02-05T07:45:51.827Z,215.25
2019-02-05T07:46:52.093Z,215.31
2019-02-05T07:47:52.253Z,215.24
2019-02-05T07:48:52.483Z,215.16
2019-02-05T07:49:52.693Z,215.17
2019-02-05T07:50:52.882Z,215.13
2019-02-05T07:51:53.103Z,215.16
2019-02-05T07:52:53.293Z,215.19
2019-02-05T07:53:53.529Z,215.15
2019-02-05T07:54:53.779Z,215.05
2019-02-05T07:55:53.903Z,215.05
2019-02-05T07:56:54.141Z,215.15
2019-02-05T07:57:54.318Z,215.12
2019-02-05T07:58:54.560Z,215.06
2019-02-05T07:59:54.778Z,215.06
2019-02-05T08:00:54.986Z,215.06
2019-02-05T08:01:55.192Z,215.02
2019-02-05T08:02:55.397Z,215.10
2019-02-05T08:03:55.662Z,215.06
2019-02-05T08:04:55.828Z,215.08
2019-02-05T08:05:56.031Z,215.10
2019-02-05T08:06:56.235Z,215.05
2019-02-05T08:07:56.415Z,215.03
2019-02-05T08:08:56.623Z,215.05
2019-02-05T08:09:56.810Z,214.98
2019-02-05T08:10:57.076Z,214.98
2019-02-05T08:11:57.386Z,215.02
2019-02-05T08:12:57.440Z,214.94
2019-02-05T08:13:57.649Z,214.96
2019-02-05T08:14:57.853Z,215.00
2019-02-05T08:15:58.087Z,214.94
2019-02-05T08:16:58.310Z,214.97
2019-02-05T08:17:58.497Z,214.88
2019-02-05T08:18:58.721Z,214.98
2019-02-05T08:19:58.958Z,214.88
2019-02-05T08:20:59.135Z,214.96
2019-02-05T08:21:59.328Z,214.86
2019-02-05T08:22:59.515Z,214.83
2019-02-05T08:23:59.741Z,214.87
2019-02-05T08:24:59.934Z,214.76
2019-02-05T08:26:00.155Z,214.72
2019-02-05T08:27:00.357Z,214.64
2019-02-05T08:28:00.631Z,214.70
2019-02-05T08:29:00.751Z,214.69
2019-02-05T08:30:00.950Z,214.68
2019-02-05T08:31:01.190Z,214.63
2019-02-05T08:32:01.367Z,214.61
2019-02-05T08:33:01.657Z,214.68
2019-02-05T08:34:03.244Z,214.60
2019-02-05T08:35:01.985Z,214.63
2019-02-05T08:36:02.229Z,214.65
2019-02-05T08:37:02.423Z,214.60
2019-02-05T08:38:02.605Z,214.60
2019-02-05T08:39:02.826Z,214.54
2019-02-05T08:40:03.016Z,214.52
2019-02-05T08:41:03.222Z,214.58
2019-02-05T08:42:03.560Z,214.54
2019-02-05T08:43:03.621Z,214.58
2019-02-05T08:44:03.857Z,214.58
2019-02-05T08:45:04.174Z,214.66
2019-02-05T08:46:04.285Z,214.66
2019-02-05T08:47:04.483Z,214.69
2019-02-05T08:48:04.671Z,214.65
2019-02-05T08:49:04.892Z,214.69
2019-02-05T08:50:05.120Z,214.76
2019-02-05T08:51:05.332Z,214.69
2019-02-05T08:52:05.540Z,214.72
2019-02-05T08:53:05.865Z,214.69
2019-02-05T08:54:05.935Z,214.68
2019-02-05T08:55:06.162Z,214.61
2019-02-05T08:56:06.380Z,214.69
2019-02-05T08:57:06.600Z,214.69
2019-02-05T08:58:06.779Z,214.62
2019-02-05T08:59:06.976Z,214.68
2019-02-05T09:00:07.214Z,214.70
2019-02-05T09:01:07.458Z,214.63
2019-02-05T09:02:07.605Z,214.58
2019-02-05T09:03:07.803Z,214.58
2019-02-05T09:04:07.994Z,214.61
2019-02-05T09:05:08.238Z,214.58
2019-02-05T09:06:08.451Z,214.58
2019-02-05T09:07:08.657Z,214.54
2019-02-05T09:08:08.868Z,214.58
2019-02-05T09:09:09.099Z,214.52
2019-02-05T09:10:09.246Z,214.49
2019-02-05T09:11:09.468Z,214.54
2019-02-05T09:12:09.682Z,214.51
2019-02-05T09:13:09.951Z,214.50
2019-02-05T09:14:10.667Z,214.49
2019-02-05T09:15:10.310Z,214.49
2019-02-05T09:16:10.496Z,214.56
2019-02-05T09:17:10.748Z,214.51
2019-02-05T09:18:11.015Z,214.60
2019-02-05T09:19:11.134Z,214.61
2019-02-05T09:20:11.589Z,214.56
2019-02-05T09:21:11.562Z,214.56
2019-02-05T09:22:11.747Z,214.58
2019-02-05T09:23:14.157Z,214.58
2019-02-05T09:24:12.167Z,214.58
2019-02-05T09:25:12.411Z,214.58
2019-02-05T09:26:12.675Z,264.95
2019-02-05T09:27:12.799Z,265.23
2019-02-05T09:28:13.004Z,265.31
2019-02-05T09:29:13.205Z,264.73
2019-02-05T09:30:13.430Z,264.25
2019-02-05T09:31:13.631Z,265.41
2019-02-05T09:32:13.850Z,264.01
2019-02-05T09:33:14.018Z,264.66
2019-02-05T09:34:14.347Z,264.91
2019-02-05T09:35:14.457Z,265.10
2019-02-05T09:36:14.662Z,263.89
2019-02-05T09:37:14.875Z,264.38
2019-02-05T09:38:15.049Z,265.23
2019-02-05T09:39:15.271Z,265.26
2019-02-05T09:40:15.493Z,264.81
2019-02-05T09:41:15.696Z,263.22
2019-02-05T09:42:15.932Z,263.48
2019-02-05T09:43:16.054Z,263.12
2019-02-05T09:44:16.277Z,264.44
2019-02-05T09:45:16.515Z,265.09
2019-02-05T09:46:16.713Z,264.60
2019-02-05T09:47:16.928Z,264.24
2019-02-05T09:48:17.114Z,264.49
2019-02-05T09:49:17.320Z,263.90
2019-02-05T09:50:17.561Z,263.93
2019-02-05T09:51:17.763Z,264.11
2019-02-05T09:52:17.941Z,263.93
2019-02-05T09:53:18.155Z,264.38
2019-02-05T09:54:18.361Z,264.27
2019-02-05T09:55:18.570Z,264.12
2019-02-05T09:56:18.803Z,264.51
2019-02-05T09:57:18.984Z,262.59
2019-02-05T09:58:19.244Z,262.72
2019-02-05T09:59:19.515Z,264.07
2019-02-05T10:00:19.619Z,263.20
2019-02-05T10:01:19.854Z,264.99
2019-02-05T10:02:20.036Z,264.61
2019-02-05T10:03:20.274Z,264.69
2019-02-05T10:04:20.457Z,264.20
2019-02-05T10:05:20.684Z,263.72
2019-02-05T10:06:20.900Z,263.30
2019-02-05T10:07:21.173Z,263.94
2019-02-05T10:08:21.296Z,263.26
2019-02-05T10:09:21.485Z,263.46
2019-02-05T10:10:21.715Z,262.67
2019-02-05T10:11:21.915Z,264.81
2019-02-05T10:12:22.126Z,263.40
2019-02-05T10:13:22.352Z,264.15
2019-02-05T10:14:22.541Z,264.14
2019-02-05T10:15:22.802Z,263.54
2019-02-05T10:16:22.941Z,264.14
2019-02-05T10:17:23.138Z,263.83
2019-02-05T10:18:23.373Z,263.05
2019-02-05T10:19:23.556Z,262.82
2019-02-05T10:20:23.790Z,263.41
2019-02-05T10:21:24.007Z,264.09
2019-02-05T10:22:24.182Z,263.70
2019-02-05T10:23:24.432Z,263.38
2019-02-05T10:24:24.578Z,263.19
2019-02-05T10:25:24.809Z,263.73
2019-02-05T10:26:25.016Z,263.93
2019-02-05T10:27:25.205Z,264.25
2019-02-05T10:28:25.428Z,262.30
2019-02-05T10:29:25.599Z,263.51
2019-02-05T10:30:25.842Z,263.94
2019-02-05T10:31:26.071Z,263.30
2019-02-05T10:32:26.302Z,263.15
2019-02-05T10:33:26.462Z,263.55
2019-02-05T10:34:33.820Z,264.34
2019-02-05T10:35:27.879Z,263.62
2019-02-05T10:36:27.097Z,263.34
2019-02-05T10:37:27.265Z,263.01
2019-02-05T10:38:27.508Z,263.22
2019-02-05T10:39:27.706Z,264.56
2019-02-05T10:40:28.029Z,262.03
2019-02-05T10:41:28.110Z,263.12
2019-02-05T10:42:28.308Z,262.86
2019-02-05T10:43:28.529Z,262.92
2019-02-05T10:44:28.717Z,263.96
2019-02-05T10:45:29.070Z,263.87
2019-02-05T10:46:29.375Z,263.62
2019-02-05T10:47:29.329Z,262.83
2019-02-05T10:48:29.656Z,263.79
2019-02-05T10:49:29.721Z,263.89
2019-02-05T10:50:29.962Z,263.08
2019-02-05T10:51:30.202Z,263.96
2019-02-05T10:52:30.374Z,264.66
2019-02-05T10:53:30.600Z,263.34
2019-02-05T10:54:30.792Z,264.33
2019-02-05T10:55:30.995Z,263.36
2019-02-05T10:56:31.256Z,263.03
2019-02-05T10:57:31.391Z,264.58
2019-02-05T10:58:31.617Z,263.60
2019-02-05T10:59:31.808Z,263.36
2019-02-05T11:00:32.242Z,263.54
2019-02-05T11:01:32.302Z,263.66
2019-02-05T11:02:32.429Z,264.49
2019-02-05T11:03:32.670Z,264.59
2019-02-05T11:04:32.920Z,263.97
2019-02-05T11:05:33.043Z,264.57
2019-02-05T11:06:33.318Z,263.55
2019-02-05T11:07:33.489Z,263.27
2019-02-05T11:08:33.696Z,263.75
2019-02-05T11:09:33.906Z,262.42
2019-02-05T11:10:34.103Z,264.56
2019-02-05T11:11:34.344Z,265.17
2019-02-05T11:12:34.527Z,265.08
2019-02-05T11:13:34.792Z,264.83
2019-02-05T11:14:34.938Z,264.52
2019-02-05T11:15:35.148Z,265.48
2019-02-05T11:16:35.415Z,265.01
2019-02-05T11:17:35.592Z,264.25
2019-02-05T11:18:35.784Z,263.79
2019-02-05T11:19:35.957Z,264.39
2019-02-05T11:20:36.183Z,263.53
2019-02-05T11:21:36.535Z,264.02
2019-02-05T11:22:36.625Z,263.00
2019-02-05T11:23:36.820Z,263.54
2019-02-05T11:24:37.019Z,263.96
2019-02-05T11:25:37.246Z,262.98
2019-02-05T11:26:37.525Z,264.45
2019-02-05T11:27:37.701Z,263.67
2019-02-05T11:28:37.889Z,264.13
2019-02-05T11:29:38.167Z,263.46
2019-02-05T11:30:38.271Z,263.74
2019-02-05T11:31:38.501Z,264.37
2019-02-05T11:32:38.731Z,263.42
2019-02-05T11:33:38.904Z,263.61
2019-02-05T11:34:39.101Z,262.82
2019-02-05T11:35:39.294Z,262.97
2019-02-05T11:36:39.533Z,263.95
2019-02-05T11:37:39.813Z,263.06
2019-02-05T11:38:39.928Z,264.89
2019-02-05T11:39:40.125Z,264.74
2019-02-05T11:40:40.334Z,264.57
2019-02-05T11:41:40.543Z,263.70
2019-02-05T11:42:40.747Z,263.20
2019-02-05T11:43:40.988Z,263.99
2019-02-05T11:44:41.182Z,263.66
2019-02-05T11:45:41.419Z,263.74
2019-02-05T11:46:41.603Z,262.89
2019-02-05T11:47:41.799Z,263.65
2019-02-05T11:48:42.039Z,264.08
2019-02-05T11:49:42.225Z,263.54
2019-02-05T11:50:42.433Z,263.87
2019-02-05T11:51:42.696Z,262.80
2019-02-05T11:52:42.876Z,263.94
2019-02-05T11:53:43.070Z,213.40
2019-02-05T11:54:43.387Z,213.40
2019-02-05T11:55:43.473Z,213.41
2019-02-05T11:56:43.700Z,213.40
2019-02-05T11:57:43.879Z,213.46
2019-02-05T11:58:44.095Z,213.43
2019-02-05T11:59:44.309Z,213.36
2019-02-05T12:00:44.526Z,213.35
2019-02-05T12:01:44.784Z,213.41
2019-02-05T12:02:45.093Z,213.42
2019-02-05T12:03:45.149Z,213.42
2019-02-05T12:04:45.378Z,213.42
2019-02-05T12:05:45.575Z,264.55
2019-02-05T12:06:45.810Z,264.13
2019-02-05T12:07:46.039Z,264.47
2019-02-05T12:08:46.180Z,264.37
2019-02-05T12:09:46.425Z,263.97
2019-02-05T12:10:46.701Z,263.69
2019-02-05T12:11:46.864Z,263.21
2019-02-05T12:12:51.072Z,263.62
2019-02-05T12:13:47.312Z,263.51
2019-02-05T12:14:50.201Z,264.20
2019-02-05T12:15:47.674Z,263.33
2019-02-05T12:16:47.917Z,264.03
2019-02-05T12:17:48.478Z,264.58
2019-02-05T12:18:48.344Z,263.77
2019-02-05T12:19:48.513Z,264.86
2019-02-05T12:20:48.716Z,264.08
2019-02-05T12:21:48.961Z,263.76
2019-02-05T12:22:49.191Z,262.70
2019-02-05T12:23:49.720Z,265.18
2019-02-05T12:24:49.588Z,264.17
2019-02-05T12:25:49.895Z,264.57
2019-02-05T12:26:50.030Z,263.81
2019-02-05T12:27:50.355Z,264.79
2019-02-05T12:28:50.415Z,264.25
2019-02-05T12:29:51.211Z,265.50
2019-02-05T12:30:50.806Z,264.86